sensor_id;sensor_type;location;lat;lon;timestamp;pressure;altitude;pressure_sealevel;temperature;humidity
78741;BME280;68062;48.726;9.370;2023-03-23T00:01:28;98177.78;;;13.74;64.83
78741;BME280;68062;48.726;9.370;2023-03-23T00:03:57;98180.34;;;13.74;64.29
78741;BME280;68062;48.726;9.370;2023-03-23T00:06:26;98176.06;;;13.74;63.39
78741;BME280;68062;48.726;9.370;2023-03-23T00:08:54;98171.72;;;13.75;64.27
78741;BME280;68062;48.726;9.370;2023-03-23T00:11:28;98160.56;;;13.74;64.89
78741;BME280;68062;48.726;9.370;2023-03-23T00:13:57;98167.50;;;13.71;64.12
78741;BME280;68062;48.726;9.370;2023-03-23T00:16:28;98117.41;;;13.40;64.57
78741;BME280;68062;48.726;9.370;2023-03-23T00:18:59;98166.78;;;13.65;63.49
78741;BME280;68062;48.726;9.370;2023-03-23T00:21:28;98159.91;;;13.64;64.69
78741;BME280;68062;48.726;9.370;2023-03-23T00:24:02;98158.34;;;13.57;64.63
78741;BME280;68062;48.726;9.370;2023-03-23T00:26:31;98154.72;;;13.66;66.03
78741;BME280;68062;48.726;9.370;2023-03-23T00:29:01;98160.72;;;13.66;64.75
78741;BME280;68062;48.726;9.370;2023-03-23T00:31:29;98167.50;;;13.71;66.31
78741;BME280;68062;48.726;9.370;2023-03-23T00:33:58;98164.84;;;13.74;66.19
78741;BME280;68062;48.726;9.370;2023-03-23T00:36:26;98157.09;;;13.74;66.84
78741;BME280;68062;48.726;9.370;2023-03-23T00:38:54;98143.34;;;13.73;66.26
78741;BME280;68062;48.726;9.370;2023-03-23T00:41:23;98133.09;;;13.70;66.73
78741;BME280;68062;48.726;9.370;2023-03-23T00:43:54;98142.47;;;13.73;67.27
78741;BME280;68062;48.726;9.370;2023-03-23T00:46:21;98136.44;;;13.74;66.85
78741;BME280;68062;48.726;9.370;2023-03-23T00:48:48;98133.91;;;13.72;67.53
78741;BME280;68062;48.726;9.370;2023-03-23T00:51:16;98132.16;;;13.73;66.81
78741;BME280;68062;48.726;9.370;2023-03-23T00:53:43;98123.59;;;13.71;67.48
78741;BME280;68062;48.726;9.370;2023-03-23T00:56:11;98124.53;;;13.68;67.84
78741;BME280;68062;48.726;9.370;2023-03-23T00:58:37;98132.28;;;13.68;66.74
78741;BME280;68062;48.726;9.370;2023-03-23T01:01:06;98128.81;;;13.67;68.00
78741;BME280;68062;48.726;9.370;2023-03-23T01:03:33;98125.34;;;13.68;67.74
78741;BME280;68062;48.726;9.370;2023-03-23T01:06:06;98109.94;;;13.65;67.84
78741;BME280;68062;48.726;9.370;2023-03-23T01:08:34;98109.03;;;13.68;68.13
78741;BME280;68062;48.726;9.370;2023-03-23T01:11:06;98121.06;;;13.69;67.29
78741;BME280;68062;48.726;9.370;2023-03-23T01:13:33;98126.22;;;13.69;67.87
78741;BME280;68062;48.726;9.370;2023-03-23T01:16:00;98120.25;;;13.65;67.92
78741;BME280;68062;48.726;9.370;2023-03-23T01:18:28;98102.31;;;13.61;68.28
78741;BME280;68062;48.726;9.370;2023-03-23T01:20:55;98118.47;;;13.69;68.45
78741;BME280;68062;48.726;9.370;2023-03-23T01:23:21;98112.50;;;13.67;67.13
78741;BME280;68062;48.726;9.370;2023-03-23T01:25:49;98112.50;;;13.65;68.12
78741;BME280;68062;48.726;9.370;2023-03-23T01:28:15;98114.19;;;13.68;68.49
78741;BME280;68062;48.726;9.370;2023-03-23T01:30:42;98102.09;;;13.70;68.40
78741;BME280;68062;48.726;9.370;2023-03-23T01:33:09;98098.72;;;13.66;68.85
78741;BME280;68062;48.726;9.370;2023-03-23T01:35:38;98096.13;;;13.66;67.37
78741;BME280;68062;48.726;9.370;2023-03-23T01:38:05;98103.94;;;13.65;68.75
78741;BME280;68062;48.726;9.370;2023-03-23T01:40:32;98075.91;;;13.48;67.92
78741;BME280;68062;48.726;9.370;2023-03-23T01:42:59;98092.81;;;13.61;67.31
78741;BME280;68062;48.726;9.370;2023-03-23T01:45:29;98086.00;;;13.59;68.93
78741;BME280;68062;48.726;9.370;2023-03-23T01:48:07;98055.31;;;13.45;68.81
78741;BME280;68062;48.726;9.370;2023-03-23T01:50:42;98064.44;;;13.60;68.51
78741;BME280;68062;48.726;9.370;2023-03-23T01:53:11;98076.50;;;13.59;68.60
78741;BME280;68062;48.726;9.370;2023-03-23T01:55:40;98056.13;;;13.47;69.06
78741;BME280;68062;48.726;9.370;2023-03-23T01:58:08;98068.81;;;13.56;69.24
78741;BME280;68062;48.726;9.370;2023-03-23T02:00:36;98072.22;;;13.58;68.53
78741;BME280;68062;48.726;9.370;2023-03-23T02:03:06;98061.16;;;13.53;67.98
78741;BME280;68062;48.726;9.370;2023-03-23T02:05:40;98074.81;;;13.58;68.99
78741;BME280;68062;48.726;9.370;2023-03-23T02:08:16;98055.97;;;13.53;68.73
78741;BME280;68062;48.726;9.370;2023-03-23T02:10:45;98066.22;;;13.58;68.95
78741;BME280;68062;48.726;9.370;2023-03-23T02:13:12;98071.41;;;13.56;68.66
78741;BME280;68062;48.726;9.370;2023-03-23T02:15:45;98058.63;;;13.51;69.05
78741;BME280;68062;48.726;9.370;2023-03-23T02:21:46;98048.47;;;13.44;68.23
78741;BME280;68062;48.726;9.370;2023-03-23T02:24:57;98062.91;;;13.52;69.01
78741;BME280;68062;48.726;9.370;2023-03-23T02:27:40;98064.59;;;13.53;68.99
78741;BME280;68062;48.726;9.370;2023-03-23T02:30:37;98055.19;;;13.51;68.42
78741;BME280;68062;48.726;9.370;2023-03-23T02:36:13;98066.38;;;13.51;68.60
78741;BME280;68062;48.726;9.370;2023-03-23T02:38:44;98060.41;;;13.49;68.55
78741;BME280;68062;48.726;9.370;2023-03-23T02:41:20;98051.75;;;13.50;67.87
78741;BME280;68062;48.726;9.370;2023-03-23T02:43:49;98051.97;;;13.41;68.69
78741;BME280;68062;48.726;9.370;2023-03-23T02:46:16;98048.56;;;13.39;69.31
78741;BME280;68062;48.726;9.370;2023-03-23T02:48:44;98034.88;;;13.35;69.33
78741;BME280;68062;48.726;9.370;2023-03-23T02:51:18;98033.97;;;13.38;68.65
78741;BME280;68062;48.726;9.370;2023-03-23T02:53:47;98030.50;;;13.37;68.75
78741;BME280;68062;48.726;9.370;2023-03-23T02:56:17;98021.03;;;13.38;68.48
78741;BME280;68062;48.726;9.370;2023-03-23T02:58:44;98021.81;;;13.42;68.11
78741;BME280;68062;48.726;9.370;2023-03-23T03:01:51;98031.28;;;13.43;68.13
78741;BME280;68062;48.726;9.370;2023-03-23T03:04:22;98028.69;;;13.43;68.54
78741;BME280;68062;48.726;9.370;2023-03-23T03:06:59;98034.72;;;13.43;68.54
78741;BME280;68062;48.726;9.370;2023-03-23T03:09:35;98023.53;;;13.43;68.22
78741;BME280;68062;48.726;9.370;2023-03-23T03:12:08;98029.56;;;13.43;69.19
78741;BME280;68062;48.726;9.370;2023-03-23T03:14:42;98028.72;;;13.41;69.04
78741;BME280;68062;48.726;9.370;2023-03-23T03:17:17;98025.28;;;13.40;69.19
78741;BME280;68062;48.726;9.370;2023-03-23T03:19:49;98006.47;;;13.35;68.51
78741;BME280;68062;48.726;9.370;2023-03-23T03:22:20;98010.72;;;13.38;69.24
78741;BME280;68062;48.726;9.370;2023-03-23T03:24:50;98001.16;;;13.42;68.59
78741;BME280;68062;48.726;9.370;2023-03-23T03:27:18;98001.09;;;13.45;68.27
78741;BME280;68062;48.726;9.370;2023-03-23T03:30:04;97995.13;;;13.41;69.30
78741;BME280;68062;48.726;9.370;2023-03-23T03:32:36;98001.28;;;13.37;68.17
78741;BME280;68062;48.726;9.370;2023-03-23T03:35:06;97992.06;;;13.27;67.86
78741;BME280;68062;48.726;9.370;2023-03-23T03:37:36;98001.56;;;13.24;67.35
78741;BME280;68062;48.726;9.370;2023-03-23T03:40:06;98003.56;;;13.13;67.92
78741;BME280;68062;48.726;9.370;2023-03-23T03:42:39;97992.34;;;13.16;67.09
78741;BME280;68062;48.726;9.370;2023-03-23T03:45:10;97948.31;;;12.86;67.07
78741;BME280;68062;48.726;9.370;2023-03-23T03:47:38;98000.00;;;13.19;66.97
78741;BME280;68062;48.726;9.370;2023-03-23T03:50:06;97992.22;;;13.20;67.38
78741;BME280;68062;48.726;9.370;2023-03-23T03:52:35;97988.66;;;13.24;67.37
78741;BME280;68062;48.726;9.370;2023-03-23T03:55:04;97991.13;;;13.29;67.05
78741;BME280;68062;48.726;9.370;2023-03-23T03:57:32;97984.38;;;13.25;67.50
78741;BME280;68062;48.726;9.370;2023-03-23T04:00:18;97997.91;;;13.33;66.65
78741;BME280;68062;48.726;9.370;2023-03-23T04:02:49;97990.22;;;13.30;67.80
78741;BME280;68062;48.726;9.370;2023-03-23T04:05:24;97997.06;;;13.33;67.79
78741;BME280;68062;48.726;9.370;2023-03-23T04:07:56;97986.81;;;13.30;67.48
78741;BME280;68062;48.726;9.370;2023-03-23T04:10:31;97996.22;;;13.32;67.09
78741;BME280;68062;48.726;9.370;2023-03-23T04:12:59;97992.72;;;13.35;68.20
78741;BME280;68062;48.726;9.370;2023-03-23T04:15:45;97953.22;;;12.97;67.91
78741;BME280;68062;48.726;9.370;2023-03-23T04:18:12;97985.34;;;13.21;67.06
78741;BME280;68062;48.726;9.370;2023-03-23T04:20:41;97977.53;;;13.22;68.41
78741;BME280;68062;48.726;9.370;2023-03-23T04:23:09;97980.03;;;13.25;67.62
78741;BME280;68062;48.726;9.370;2023-03-23T04:25:35;97987.72;;;13.29;68.43
78741;BME280;68062;48.726;9.370;2023-03-23T04:28:04;97983.44;;;13.28;67.60
78741;BME280;68062;48.726;9.370;2023-03-23T04:30:39;97982.47;;;13.30;68.09
78741;BME280;68062;48.726;9.370;2023-03-23T04:33:10;97989.31;;;13.33;68.82
78741;BME280;68062;48.726;9.370;2023-03-23T04:35:40;97991.13;;;13.29;69.14
78741;BME280;68062;48.726;9.370;2023-03-23T04:38:14;97986.00;;;13.28;68.77
78741;BME280;68062;48.726;9.370;2023-03-23T04:40:44;97939.34;;;13.01;68.49
78741;BME280;68062;48.726;9.370;2023-03-23T04:43:19;98001.28;;;13.35;68.60
78741;BME280;68062;48.726;9.370;2023-03-23T04:46:05;97990.13;;;13.35;67.98
78741;BME280;68062;48.726;9.370;2023-03-23T04:48:34;97997.00;;;13.34;69.10
78741;BME280;68062;48.726;9.370;2023-03-23T04:51:08;97995.28;;;13.35;68.33
78741;BME280;68062;48.726;9.370;2023-03-23T04:53:38;97996.19;;;13.34;68.37
78741;BME280;68062;48.726;9.370;2023-03-23T04:56:05;97988.53;;;13.29;69.75
78741;BME280;68062;48.726;9.370;2023-03-23T04:58:37;97996.25;;;13.31;69.50
78741;BME280;68062;48.726;9.370;2023-03-23T05:01:15;97993.75;;;13.28;68.65
78741;BME280;68062;48.726;9.370;2023-03-23T05:03:54;97972.44;;;13.19;68.40
78741;BME280;68062;48.726;9.370;2023-03-23T05:06:21;97983.34;;;13.31;69.72
78741;BME280;68062;48.726;9.370;2023-03-23T05:08:52;97991.09;;;13.31;70.02
78741;BME280;68062;48.726;9.370;2023-03-23T05:11:20;97992.88;;;13.29;69.00
78741;BME280;68062;48.726;9.370;2023-03-23T05:13:48;97986.91;;;13.27;70.11
78741;BME280;68062;48.726;9.370;2023-03-23T05:16:15;97992.00;;;13.28;69.49
78741;BME280;68062;48.726;9.370;2023-03-23T05:18:43;97981.88;;;13.22;69.98
78741;BME280;68062;48.726;9.370;2023-03-23T05:21:15;97983.50;;;13.24;69.72
78741;BME280;68062;48.726;9.370;2023-03-23T05:23:48;97987.84;;;13.24;70.81
78741;BME280;68062;48.726;9.370;2023-03-23T05:26:22;97992.19;;;13.22;70.49
78741;BME280;68062;48.726;9.370;2023-03-23T05:28:53;97981.00;;;13.21;70.68
78741;BME280;68062;48.726;9.370;2023-03-23T05:31:35;97996.72;;;13.12;70.45
78741;BME280;68062;48.726;9.370;2023-03-23T05:34:04;97991.56;;;13.12;70.28
78741;BME280;68062;48.726;9.370;2023-03-23T05:36:37;97987.19;;;13.16;70.53
78741;BME280;68062;48.726;9.370;2023-03-23T05:39:28;97983.66;;;13.18;71.42
78741;BME280;68062;48.726;9.370;2023-03-23T05:42:16;97979.31;;;13.20;70.27
78741;BME280;68062;48.726;9.370;2023-03-23T05:44:48;97983.66;;;13.18;70.17
78741;BME280;68062;48.726;9.370;2023-03-23T05:47:16;97983.72;;;13.17;70.94
78741;BME280;68062;48.726;9.370;2023-03-23T05:49:50;97966.69;;;13.09;71.01
78741;BME280;68062;48.726;9.370;2023-03-23T05:52:18;97979.28;;;13.22;71.30
78741;BME280;68062;48.726;9.370;2023-03-23T05:54:46;97979.34;;;13.19;71.62
78741;BME280;68062;48.726;9.370;2023-03-23T05:57:15;97989.34;;;13.31;70.88
78741;BME280;68062;48.726;9.370;2023-03-23T05:59:46;97991.94;;;13.31;71.40
78741;BME280;68062;48.726;9.370;2023-03-23T06:02:19;98000.47;;;13.35;71.57
78741;BME280;68062;48.726;9.370;2023-03-23T06:04:45;98008.28;;;13.32;70.57
78741;BME280;68062;48.726;9.370;2023-03-23T06:07:20;98005.72;;;13.30;71.56
78741;BME280;68062;48.726;9.370;2023-03-23T06:09:56;98009.91;;;13.36;71.96
78741;BME280;68062;48.726;9.370;2023-03-23T06:12:24;97998.72;;;13.35;71.44
78741;BME280;68062;48.726;9.370;2023-03-23T06:15:03;98024.31;;;13.46;71.43
78741;BME280;68062;48.726;9.370;2023-03-23T06:17:52;98018.13;;;13.52;70.31
78741;BME280;68062;48.726;9.370;2023-03-23T06:20:27;98025.84;;;13.53;71.26
78741;BME280;68062;48.726;9.370;2023-03-23T06:22:55;98020.69;;;13.53;71.47
78741;BME280;68062;48.726;9.370;2023-03-23T06:25:31;98029.31;;;13.52;70.94
78741;BME280;68062;48.726;9.370;2023-03-23T06:28:00;98012.41;;;13.39;71.42
78741;BME280;68062;48.726;9.370;2023-03-23T06:30:27;98032.75;;;13.53;70.32
78741;BME280;68062;48.726;9.370;2023-03-23T06:32:56;98034.41;;;13.56;70.84
78741;BME280;68062;48.726;9.370;2023-03-23T06:35:45;98035.16;;;13.59;70.99
78741;BME280;68062;48.726;9.370;2023-03-23T06:38:18;98042.09;;;13.59;70.37
78741;BME280;68062;48.726;9.370;2023-03-23T06:40:51;98046.38;;;13.60;71.17
78741;BME280;68062;48.726;9.370;2023-03-23T06:43:21;98038.56;;;13.61;71.26
78741;BME280;68062;48.726;9.370;2023-03-23T06:45:51;98045.47;;;13.61;70.92
78741;BME280;68062;48.726;9.370;2023-03-23T06:48:35;98045.47;;;13.61;70.56
78741;BME280;68062;48.726;9.370;2023-03-23T06:51:05;98042.09;;;13.59;72.19
78741;BME280;68062;48.726;9.370;2023-03-23T06:53:33;98037.09;;;13.51;70.71
78741;BME280;68062;48.726;9.370;2023-03-23T06:56:02;98052.41;;;13.59;70.66
78741;BME280;68062;48.726;9.370;2023-03-23T06:58:31;98044.63;;;13.60;72.12
78741;BME280;68062;48.726;9.370;2023-03-23T07:00:59;98045.34;;;13.65;71.30
78741;BME280;68062;48.726;9.370;2023-03-23T07:03:35;98053.59;;;13.80;71.67
78741;BME280;68062;48.726;9.370;2023-03-23T07:06:02;98051.53;;;13.93;70.68
78741;BME280;68062;48.726;9.370;2023-03-23T07:08:33;98047.72;;;14.06;71.61
78741;BME280;68062;48.726;9.370;2023-03-23T07:11:00;98057.81;;;14.16;71.46
78741;BME280;68062;48.726;9.370;2023-03-23T07:13:30;98056.75;;;14.23;70.73
78741;BME280;68062;48.726;9.370;2023-03-23T07:15:59;98053.28;;;14.24;70.52
78741;BME280;68062;48.726;9.370;2023-03-23T07:18:28;98054.09;;;14.24;69.54
78741;BME280;68062;48.726;9.370;2023-03-23T07:20:59;98049.72;;;14.28;68.87
78741;BME280;68062;48.726;9.370;2023-03-23T07:23:30;98065.22;;;14.28;69.61
78741;BME280;68062;48.726;9.370;2023-03-23T07:26:03;98071.31;;;14.25;69.28
78741;BME280;68062;48.726;9.370;2023-03-23T07:28:37;98062.72;;;14.25;69.37
78741;BME280;68062;48.726;9.370;2023-03-23T07:31:16;98070.53;;;14.23;69.66
78741;BME280;68062;48.726;9.370;2023-03-23T07:33:43;98082.66;;;14.21;69.93
78741;BME280;68062;48.726;9.370;2023-03-23T07:36:11;98086.25;;;14.16;70.01
78741;BME280;68062;48.726;9.370;2023-03-23T07:38:37;98092.41;;;14.11;69.54
78741;BME280;68062;48.726;9.370;2023-03-23T07:41:05;98088.38;;;14.00;70.19
78741;BME280;68062;48.726;9.370;2023-03-23T07:43:32;98084.84;;;14.04;69.57
78741;BME280;68062;48.726;9.370;2023-03-23T07:46:11;98102.91;;;14.05;70.14
78741;BME280;68062;48.726;9.370;2023-03-23T07:48:47;98092.66;;;14.02;70.30
78741;BME280;68062;48.726;9.370;2023-03-23T07:51:16;98108.00;;;14.08;70.10
78741;BME280;68062;48.726;9.370;2023-03-23T07:53:46;98090.78;;;14.07;70.35
78741;BME280;68062;48.726;9.370;2023-03-23T07:56:32;98094.75;;;14.19;70.00
78741;BME280;68062;48.726;9.370;2023-03-23T07:59:12;98108.94;;;14.37;69.58
78741;BME280;68062;48.726;9.370;2023-03-23T08:01:42;98100.88;;;14.48;68.46
78741;BME280;68062;48.726;9.370;2023-03-23T08:04:27;98109.19;;;14.58;69.22
78741;BME280;68062;48.726;9.370;2023-03-23T08:07:09;98109.81;;;14.68;67.52
78741;BME280;68062;48.726;9.370;2023-03-23T08:10:04;98115.63;;;14.76;68.13
78741;BME280;68062;48.726;9.370;2023-03-23T08:12:52;98113.78;;;14.80;68.67
78741;BME280;68062;48.726;9.370;2023-03-23T08:15:43;98109.22;;;14.88;68.36
78741;BME280;68062;48.726;9.370;2023-03-23T08:18:50;98117.09;;;14.85;68.92
78741;BME280;68062;48.726;9.370;2023-03-23T08:21:43;98123.78;;;14.92;68.81
78741;BME280;68062;48.726;9.370;2023-03-23T08:24:40;98114.56;;;15.12;67.49
78741;BME280;68062;48.726;9.370;2023-03-23T08:27:26;98104.19;;;15.12;66.81
78741;BME280;68062;48.726;9.370;2023-03-23T08:30:13;98123.38;;;15.35;66.46
78741;BME280;68062;48.726;9.370;2023-03-23T08:33:02;98120.53;;;15.42;66.28
78741;BME280;68062;48.726;9.370;2023-03-23T08:35:55;98118.59;;;15.49;63.83
78741;BME280;68062;48.726;9.370;2023-03-23T08:38:42;98123.66;;;15.52;63.80
78741;BME280;68062;48.726;9.370;2023-03-23T08:41:29;98131.50;;;15.51;63.43
78741;BME280;68062;48.726;9.370;2023-03-23T08:44:23;98125.56;;;15.47;62.64
78741;BME280;68062;48.726;9.370;2023-03-23T08:47:05;98123.84;;;15.48;60.75
78741;BME280;68062;48.726;9.370;2023-03-23T08:49:52;98084.00;;;15.23;60.21
78741;BME280;68062;48.726;9.370;2023-03-23T08:52:28;98121.34;;;15.44;59.90
78741;BME280;68062;48.726;9.370;2023-03-23T08:55:31;98130.63;;;15.52;58.42
78741;BME280;68062;48.726;9.370;2023-03-23T08:58:17;98147.09;;;15.49;59.51
78741;BME280;68062;48.726;9.370;2023-03-23T09:00:49;98140.28;;;15.47;59.57
78741;BME280;68062;48.726;9.370;2023-03-23T09:03:26;98143.69;;;15.47;59.85
78741;BME280;68062;48.726;9.370;2023-03-23T09:06:10;98136.13;;;15.41;59.26
78741;BME280;68062;48.726;9.370;2023-03-23T09:08:45;98158.25;;;15.51;58.91
78741;BME280;68062;48.726;9.370;2023-03-23T09:11:12;98153.13;;;15.50;59.77
78741;BME280;68062;48.726;9.370;2023-03-23T09:13:39;98162.22;;;15.35;60.30
78741;BME280;68062;48.726;9.370;2023-03-23T09:16:07;98145.28;;;15.51;59.76
78741;BME280;68062;48.726;9.370;2023-03-23T09:18:34;98156.94;;;15.66;59.13
78741;BME280;68062;48.726;9.370;2023-03-23T09:21:02;98162.84;;;15.70;59.65
78741;BME280;68062;48.726;9.370;2023-03-23T09:23:29;98165.34;;;15.73;59.78
78741;BME280;68062;48.726;9.370;2023-03-23T09:25:59;98165.50;;;15.68;60.06
78741;BME280;68062;48.726;9.370;2023-03-23T09:28:29;98174.59;;;15.82;59.56
78741;BME280;68062;48.726;9.370;2023-03-23T09:30:57;98168.69;;;15.77;59.33
78741;BME280;68062;48.726;9.370;2023-03-23T09:33:24;98178.06;;;15.81;60.54
78741;BME280;68062;48.726;9.370;2023-03-23T09:35:54;98173.56;;;15.87;59.32
78741;BME280;68062;48.726;9.370;2023-03-23T09:38:21;98162.13;;;15.93;59.77
78741;BME280;68062;48.726;9.370;2023-03-23T09:40:56;98182.66;;;15.99;59.91
78741;BME280;68062;48.726;9.370;2023-03-23T09:43:39;98177.91;;;15.85;60.26
78741;BME280;68062;48.726;9.370;2023-03-23T09:46:20;98175.41;;;15.82;60.19
78741;BME280;68062;48.726;9.370;2023-03-23T09:48:51;98183.91;;;15.87;60.32
78741;BME280;68062;48.726;9.370;2023-03-23T09:51:32;98174.47;;;15.85;60.73
78741;BME280;68062;48.726;9.370;2023-03-23T09:54:08;98181.75;;;15.73;60.86
78741;BME280;68062;48.726;9.370;2023-03-23T09:56:35;98187.53;;;15.82;61.36
78741;BME280;68062;48.726;9.370;2023-03-23T09:59:10;98180.25;;;15.66;61.65
78741;BME280;68062;48.726;9.370;2023-03-23T10:01:44;98164.00;;;15.61;61.78
78741;BME280;68062;48.726;9.370;2023-03-23T10:04:28;98171.28;;;15.77;61.42
78741;BME280;68062;48.726;9.370;2023-03-23T10:06:59;98196.00;;;15.88;61.27
78741;BME280;68062;48.726;9.370;2023-03-23T10:09:31;98180.50;;;15.87;60.19
78741;BME280;68062;48.726;9.370;2023-03-23T10:12:07;98202.66;;;15.96;59.98
78741;BME280;68062;48.726;9.370;2023-03-23T10:15:08;98204.47;;;15.94;60.70
78741;BME280;68062;48.726;9.370;2023-03-23T10:17:41;98207.47;;;16.07;60.91
78741;BME280;68062;48.726;9.370;2023-03-23T10:20:21;98209.63;;;16.21;59.90
78741;BME280;68062;48.726;9.370;2023-03-23T10:23:24;98203.75;;;16.15;59.92
78741;BME280;68062;48.726;9.370;2023-03-23T10:26:06;98200.66;;;16.31;59.78
78741;BME280;68062;48.726;9.370;2023-03-23T10:28:37;98200.16;;;16.45;59.36
78741;BME280;68062;48.726;9.370;2023-03-23T10:31:11;98193.44;;;16.39;59.73
78741;BME280;68062;48.726;9.370;2023-03-23T10:33:41;98195.56;;;16.28;59.35
78741;BME280;68062;48.726;9.370;2023-03-23T10:36:16;98177.66;;;16.45;59.37
78741;BME280;68062;48.726;9.370;2023-03-23T10:38:48;98206.72;;;16.55;59.94
78741;BME280;68062;48.726;9.370;2023-03-23T10:41:18;98195.69;;;16.23;59.92
78741;BME280;68062;48.726;9.370;2023-03-23T10:43:46;98193.06;;;16.50;60.10
78741;BME280;68062;48.726;9.370;2023-03-23T10:50:13;98196.34;;;16.55;59.80
78741;BME280;68062;48.726;9.370;2023-03-23T10:52:46;98204.28;;;16.51;59.28
78741;BME280;68062;48.726;9.370;2023-03-23T10:55:21;98210.28;;;16.53;59.79
78741;BME280;68062;48.726;9.370;2023-03-23T10:57:59;98199.56;;;16.62;59.72
78741;BME280;68062;48.726;9.370;2023-03-23T11:00:29;98201.94;;;16.68;59.28
78741;BME280;68062;48.726;9.370;2023-03-23T11:03:02;98201.59;;;17.03;59.22
78741;BME280;68062;48.726;9.370;2023-03-23T11:05:35;98204.28;;;17.00;57.99
78741;BME280;68062;48.726;9.370;2023-03-23T11:08:03;98191.28;;;17.01;58.60
78741;BME280;68062;48.726;9.370;2023-03-23T11:10:40;98191.38;;;16.98;58.37
78741;BME280;68062;48.726;9.370;2023-03-23T11:16:56;98201.59;;;17.03;58.17
78741;BME280;68062;48.726;9.370;2023-03-23T11:19:26;98192.63;;;17.12;56.84
78741;BME280;68062;48.726;9.370;2023-03-23T11:22:16;98198.72;;;17.11;57.38
78741;BME280;68062;48.726;9.370;2023-03-23T11:24:47;98206.88;;;17.24;57.65
78741;BME280;68062;48.726;9.370;2023-03-23T11:27:15;98189.34;;;17.06;57.70
78741;BME280;68062;48.726;9.370;2023-03-23T11:29:48;98186.63;;;17.10;57.60
78741;BME280;68062;48.726;9.370;2023-03-23T11:32:17;98198.28;;;16.99;58.44
78741;BME280;68062;48.726;9.370;2023-03-23T11:34:46;98195.38;;;17.07;58.38
78741;BME280;68062;48.726;9.370;2023-03-23T11:37:21;98196.16;;;17.09;58.38
78741;BME280;68062;48.726;9.370;2023-03-23T11:39:54;98194.47;;;17.08;58.12
78741;BME280;68062;48.726;9.370;2023-03-23T11:42:22;98190.44;;;17.23;57.86
78741;BME280;68062;48.726;9.370;2023-03-23T11:44:53;98195.72;;;16.98;56.79
78741;BME280;68062;48.726;9.370;2023-03-23T11:47:28;98180.50;;;16.87;57.41
78741;BME280;68062;48.726;9.370;2023-03-23T11:50:04;98191.06;;;16.82;58.21
78741;BME280;68062;48.726;9.370;2023-03-23T11:52:41;98181.56;;;16.81;57.64
78741;BME280;68062;48.726;9.370;2023-03-23T11:55:15;98180.28;;;16.93;58.39
78741;BME280;68062;48.726;9.370;2023-03-23T11:57:44;98171.81;;;16.88;58.36
78741;BME280;68062;48.726;9.370;2023-03-23T12:00:14;98171.88;;;16.86;58.64
78741;BME280;68062;48.726;9.370;2023-03-23T12:05:56;98175.44;;;17.08;58.25
78741;BME280;68062;48.726;9.370;2023-03-23T12:08:38;98161.31;;;17.15;57.55
78741;BME280;68062;48.726;9.370;2023-03-23T12:11:14;98165.78;;;17.33;57.71
78741;BME280;68062;48.726;9.370;2023-03-23T12:14:00;98163.38;;;17.29;57.40
78741;BME280;68062;48.726;9.370;2023-03-23T12:16:38;98158.97;;;17.31;57.45
78741;BME280;68062;48.726;9.370;2023-03-23T12:19:15;98161.59;;;17.29;56.74
78741;BME280;68062;48.726;9.370;2023-03-23T12:21:51;98162.47;;;17.30;56.82
78741;BME280;68062;48.726;9.370;2023-03-23T12:24:29;98167.25;;;17.18;56.79
78741;BME280;68062;48.726;9.370;2023-03-23T12:27:03;98152.56;;;17.17;57.11
78741;BME280;68062;48.726;9.370;2023-03-23T12:29:42;98156.84;;;17.18;56.36
78741;BME280;68062;48.726;9.370;2023-03-23T12:32:31;98147.31;;;17.19;56.93
78741;BME280;68062;48.726;9.370;2023-03-23T12:35:13;98144.41;;;17.27;56.37
78741;BME280;68062;48.726;9.370;2023-03-23T12:40:58;98144.84;;;17.16;55.42
78741;BME280;68062;48.726;9.370;2023-03-23T12:43:35;98151.78;;;17.15;55.70
78741;BME280;68062;48.726;9.370;2023-03-23T12:46:16;98149.41;;;17.09;54.65
78741;BME280;68062;48.726;9.370;2023-03-23T12:48:51;98153.41;;;17.18;55.37
78741;BME280;68062;48.726;9.370;2023-03-23T12:51:22;98146.34;;;17.21;53.79
78741;BME280;68062;48.726;9.370;2023-03-23T12:53:56;98137.31;;;17.30;54.58
78741;BME280;68062;48.726;9.370;2023-03-23T12:56:31;98142.78;;;17.46;53.14
78741;BME280;68062;48.726;9.370;2023-03-23T12:59:08;98131.34;;;17.50;53.67
78741;BME280;68062;48.726;9.370;2023-03-23T13:01:41;98128.38;;;17.60;53.26
78741;BME280;68062;48.726;9.370;2023-03-23T13:04:13;98137.78;;;17.62;53.46
78741;BME280;68062;48.726;9.370;2023-03-23T13:06:43;98125.81;;;17.58;53.80
78741;BME280;68062;48.726;9.370;2023-03-23T13:09:15;98139.38;;;17.44;54.12
78741;BME280;68062;48.726;9.370;2023-03-23T13:11:44;98127.88;;;17.50;54.31
78741;BME280;68062;48.726;9.370;2023-03-23T13:14:21;98125.38;;;17.48;54.30
78741;BME280;68062;48.726;9.370;2023-03-23T13:16:58;98125.03;;;17.56;53.44
78741;BME280;68062;48.726;9.370;2023-03-23T13:19:33;98121.66;;;17.54;54.00
78741;BME280;68062;48.726;9.370;2023-03-23T13:22:06;98112.00;;;17.35;53.58
78741;BME280;68062;48.726;9.370;2023-03-23T13:24:49;98120.41;;;17.42;53.93
78741;BME280;68062;48.726;9.370;2023-03-23T13:27:23;98110.31;;;17.34;54.34
78741;BME280;68062;48.726;9.370;2023-03-23T13:29:50;98104.31;;;17.32;54.26
78741;BME280;68062;48.726;9.370;2023-03-23T13:32:18;98105.53;;;17.46;54.88
78741;BME280;68062;48.726;9.370;2023-03-23T13:34:46;98100.31;;;17.46;53.58
78741;BME280;68062;48.726;9.370;2023-03-23T13:37:21;98093.50;;;17.43;54.71
78741;BME280;68062;48.726;9.370;2023-03-23T13:39:54;98097.16;;;17.39;54.47
78741;BME280;68062;48.726;9.370;2023-03-23T13:42:24;98092.84;;;17.38;53.60
78741;BME280;68062;48.726;9.370;2023-03-23T13:45:05;98088.84;;;17.29;53.92
78741;BME280;68062;48.726;9.370;2023-03-23T13:47:37;98085.22;;;17.33;54.75
78741;BME280;68062;48.726;9.370;2023-03-23T13:50:11;98066.94;;;17.14;54.71
78741;BME280;68062;48.726;9.370;2023-03-23T13:52:46;98067.56;;;17.42;54.57
78741;BME280;68062;48.726;9.370;2023-03-23T13:55:20;98072.91;;;17.39;55.00